createdAt,value
2018-06-11T00:01:43.131Z,30.20
2018-06-11T00:04:11.815Z,28.27
2018-06-11T00:06:40.518Z,27.53
2018-06-11T00:09:09.443Z,28.43
2018-06-11T00:11:38.093Z,29.10
2018-06-11T00:14:06.810Z,26.80
2018-06-11T00:16:35.283Z,30.87
2018-06-11T00:19:03.826Z,28.10
2018-06-11T00:21:32.307Z,26.97
2018-06-11T00:24:00.917Z,27.83
2018-06-11T00:26:29.444Z,27.23
2018-06-11T00:28:58.080Z,29.17
2018-06-11T00:31:26.701Z,25.77
2018-06-11T00:33:55.311Z,28.40
2018-06-11T00:36:23.827Z,28.80
2018-06-11T00:38:52.395Z,26.33
2018-06-11T00:41:20.929Z,26.90
2018-06-11T00:43:49.505Z,28.73
2018-06-11T00:46:18.097Z,27.60
2018-06-11T00:48:46.630Z,30.23
2018-06-11T00:51:15.127Z,25.40
2018-06-11T00:53:43.653Z,27.53
2018-06-11T00:56:12.174Z,24.67
2018-06-11T00:58:40.669Z,28.30
2018-06-11T01:01:09.253Z,26.27
2018-06-11T01:03:37.851Z,26.63
2018-06-11T01:06:06.407Z,27.60
2018-06-11T01:08:35.028Z,24.60
2018-06-11T01:11:03.643Z,26.47
2018-06-11T01:13:32.269Z,29.53
2018-06-11T01:16:00.795Z,25.57
2018-06-11T01:18:29.319Z,26.33
2018-06-11T01:20:57.817Z,23.70
2018-06-11T01:23:26.362Z,25.73
2018-06-11T01:25:54.984Z,27.17
2018-06-11T01:28:23.444Z,25.87
2018-06-11T01:30:51.991Z,26.60
2018-06-11T01:33:20.528Z,25.93
2018-06-11T01:35:49.016Z,30.47
2018-06-11T01:38:17.584Z,28.97
2018-06-11T01:40:46.133Z,28.67
2018-06-11T01:43:14.705Z,28.53
2018-06-11T01:45:43.231Z,30.33
2018-06-11T01:48:12.895Z,26.20
2018-06-11T01:50:41.479Z,29.37
2018-06-11T01:53:11.053Z,27.23
2018-06-11T01:55:39.632Z,32.30
2018-06-11T01:58:08.466Z,25.53
2018-06-11T02:00:37.081Z,23.83
2018-06-11T02:03:05.736Z,26.40
2018-06-11T02:05:34.243Z,29.87
2018-06-11T02:08:02.789Z,27.27
2018-06-11T02:10:31.423Z,26.20
2018-06-11T02:12:59.950Z,29.97
2018-06-11T02:15:28.546Z,26.23
2018-06-11T02:17:57.118Z,28.00
2018-06-11T02:20:25.690Z,27.57
2018-06-11T02:22:54.299Z,26.90
2018-06-11T02:25:22.851Z,32.80
2018-06-11T02:27:51.433Z,30.37
2018-06-11T02:30:20.046Z,28.80
2018-06-11T02:32:48.651Z,29.80
2018-06-11T02:35:17.214Z,26.60
2018-06-11T02:37:45.813Z,30.53
2018-06-11T02:40:14.356Z,30.33
2018-06-11T02:42:42.989Z,28.57
2018-06-11T02:45:11.664Z,33.20
2018-06-11T02:47:40.367Z,31.97
2018-06-11T02:50:09.037Z,33.57
2018-06-11T02:52:37.787Z,30.80
2018-06-11T02:55:06.559Z,31.97
2018-06-11T02:57:35.337Z,33.43
2018-06-11T03:00:04.012Z,32.17
2018-06-11T03:02:32.670Z,33.27
2018-06-11T03:05:01.356Z,37.90
2018-06-11T03:07:29.927Z,35.10
2018-06-11T03:09:58.574Z,34.03
2018-06-11T03:12:27.249Z,37.40
2018-06-11T03:14:55.894Z,38.73
2018-06-11T03:17:24.539Z,39.10
2018-06-11T03:19:53.226Z,35.03
2018-06-11T03:22:21.924Z,38.90
2018-06-11T03:24:51.400Z,37.20
2018-06-11T03:27:20.012Z,35.00
2018-06-11T03:29:48.756Z,40.03
2018-06-11T03:32:17.396Z,37.50
2018-06-11T03:34:46.092Z,40.90
2018-06-11T03:37:14.887Z,37.53
2018-06-11T03:39:43.545Z,36.30
2018-06-11T03:42:12.255Z,36.63
2018-06-11T03:44:40.803Z,38.30
2018-06-11T03:47:09.356Z,39.37
2018-06-11T03:49:37.966Z,39.70
2018-06-11T03:52:06.724Z,41.87
2018-06-11T03:54:35.204Z,42.30
2018-06-11T03:57:03.816Z,37.40
2018-06-11T03:59:32.656Z,38.13
2018-06-11T04:02:01.209Z,38.00
2018-06-11T04:04:29.854Z,38.87
2018-06-11T04:06:58.488Z,38.77
2018-06-11T04:09:27.061Z,36.33
2018-06-11T04:11:55.609Z,42.10
2018-06-11T04:14:24.164Z,38.93
2018-06-11T04:16:52.818Z,36.13
2018-06-11T04:19:21.328Z,38.23
2018-06-11T04:21:49.938Z,38.90
2018-06-11T04:24:18.536Z,36.87
2018-06-11T04:26:48.486Z,35.27
2018-06-11T04:29:17.067Z,38.37
2018-06-11T04:31:45.598Z,42.07
2018-06-11T04:34:14.159Z,40.67
2018-06-11T04:36:42.674Z,38.90
2018-06-11T04:39:11.172Z,36.73
2018-06-11T04:41:40.207Z,39.33
2018-06-11T04:44:08.917Z,38.80
2018-06-11T04:46:37.646Z,41.47
2018-06-11T04:49:06.397Z,39.60
2018-06-11T04:51:34.995Z,42.33
2018-06-11T04:54:03.543Z,40.33
2018-06-11T04:56:32.264Z,39.43
2018-06-11T04:59:00.849Z,37.90
2018-06-11T05:01:29.463Z,41.20
2018-06-11T05:03:58.075Z,43.17
2018-06-11T05:06:26.659Z,36.20
2018-06-11T05:08:55.782Z,39.00
2018-06-11T05:11:24.542Z,37.50
2018-06-11T05:13:53.244Z,35.80
2018-06-11T05:16:21.964Z,36.13
2018-06-11T05:18:50.701Z,39.03
2018-06-11T05:21:19.374Z,39.47
2018-06-11T05:23:48.127Z,32.27
2018-06-11T05:26:16.794Z,38.57
2018-06-11T05:28:45.455Z,41.57
2018-06-11T05:31:14.140Z,38.80
2018-06-11T05:33:42.871Z,37.33
2018-06-11T05:36:11.799Z,36.53
2018-06-11T05:38:40.410Z,37.37
2018-06-11T05:41:09.174Z,38.23
2018-06-11T05:43:38.109Z,43.00
2018-06-11T05:46:06.888Z,37.43
2018-06-11T05:48:35.793Z,35.97
2018-06-11T05:51:04.512Z,42.43
2018-06-11T05:53:33.160Z,37.87
2018-06-11T05:56:01.765Z,37.00
2018-06-11T05:58:30.400Z,34.47
2018-06-11T06:00:58.915Z,41.77
2018-06-11T06:03:27.456Z,38.77
2018-06-11T06:05:56.120Z,35.10
2018-06-11T06:08:25.944Z,35.00
2018-06-11T06:10:54.832Z,35.63
2018-06-11T06:13:23.481Z,34.23
2018-06-11T06:15:52.184Z,37.67
2018-06-11T06:18:20.877Z,34.87
2018-06-11T06:20:49.399Z,34.90
2018-06-11T06:23:18.049Z,32.30
2018-06-11T06:25:46.727Z,36.13
2018-06-11T06:28:15.318Z,35.50
2018-06-11T06:30:43.832Z,32.30
2018-06-11T06:33:12.500Z,33.60
2018-06-11T06:35:41.390Z,35.37
2018-06-11T06:38:10.295Z,31.87
2018-06-11T06:40:39.085Z,35.50
2018-06-11T06:43:08.757Z,28.70
2018-06-11T06:45:38.062Z,28.90
2018-06-11T06:48:06.706Z,30.70
2018-06-11T06:50:36.254Z,33.63
2018-06-11T06:53:05.587Z,29.00
2018-06-11T06:55:34.207Z,28.53
2018-06-11T06:58:03.360Z,26.80
2018-06-11T07:00:32.568Z,33.87
2018-06-11T07:03:01.504Z,33.73
2018-06-11T07:05:30.132Z,33.93
2018-06-11T07:07:58.946Z,32.20
2018-06-11T07:10:28.204Z,30.20
2018-06-11T07:12:56.795Z,28.50
2018-06-11T07:15:25.445Z,25.87
2018-06-11T07:17:54.160Z,27.00
2018-06-11T07:20:22.933Z,33.87
2018-06-11T07:22:52.522Z,27.60
2018-06-11T07:27:55.780Z,26.17
2018-06-11T07:30:24.631Z,25.00
2018-06-11T07:32:53.328Z,24.33
2018-06-11T07:35:22.193Z,25.43
2018-06-11T07:37:50.878Z,24.03
2018-06-11T07:40:19.807Z,32.30
2018-06-11T07:42:48.352Z,24.57
2018-06-11T07:45:17.442Z,24.70
2018-06-11T07:47:46.220Z,22.67
2018-06-11T07:50:14.921Z,23.73
2018-06-11T07:52:43.467Z,27.60
2018-06-11T07:55:12.304Z,23.70
2018-06-11T07:57:40.976Z,25.33
2018-06-11T08:00:09.541Z,23.67
2018-06-11T08:02:38.005Z,26.07
2018-06-11T08:05:06.732Z,21.33
2018-06-11T08:07:35.430Z,23.10
2018-06-11T08:10:04.219Z,24.13
2018-06-11T08:12:33.302Z,23.30
2018-06-11T08:15:02.667Z,24.80
2018-06-11T08:17:31.234Z,26.03
2018-06-11T08:19:59.956Z,25.23
2018-06-11T08:22:28.691Z,25.73
2018-06-11T08:24:57.251Z,23.80
2018-06-11T08:27:26.012Z,23.60
2018-06-11T08:29:54.639Z,22.57
2018-06-11T08:32:23.114Z,21.07
2018-06-11T08:34:51.705Z,23.57
2018-06-11T08:37:20.292Z,25.33
2018-06-11T08:39:48.851Z,23.90
2018-06-11T08:42:17.422Z,23.83
2018-06-11T08:44:46.059Z,23.40
2018-06-11T08:47:14.720Z,24.93
2018-06-11T08:49:43.417Z,23.80
2018-06-11T08:52:11.912Z,22.83
2018-06-11T08:54:40.612Z,23.63
2018-06-11T08:57:09.217Z,23.33
2018-06-11T08:59:37.824Z,22.97
2018-06-11T09:02:06.405Z,22.67
2018-06-11T09:04:34.988Z,21.27
2018-06-11T09:07:03.660Z,24.53
2018-06-11T09:09:32.407Z,23.83
2018-06-11T09:12:01.232Z,21.00
2018-06-11T09:14:30.009Z,22.30
2018-06-11T09:16:58.521Z,23.03
2018-06-11T09:19:27.930Z,21.83
2018-06-11T09:21:56.465Z,22.10
2018-06-11T09:24:25.077Z,22.93
2018-06-11T09:26:53.745Z,19.77
2018-06-11T09:29:22.537Z,24.50
2018-06-11T09:31:51.074Z,22.43
2018-06-11T09:34:20.677Z,21.63
2018-06-11T09:36:49.367Z,18.37
2018-06-11T09:39:17.979Z,21.73
2018-06-11T09:41:46.600Z,20.37
2018-06-11T09:44:15.241Z,19.80
2018-06-11T09:46:43.894Z,20.90
2018-06-11T09:49:12.520Z,20.50
2018-06-11T09:51:41.124Z,19.90
2018-06-11T09:54:09.708Z,18.67
2018-06-11T09:56:38.220Z,19.90
2018-06-11T09:59:06.767Z,19.73
2018-06-11T10:01:35.387Z,18.03
2018-06-11T10:04:03.992Z,17.37
2018-06-11T10:06:32.686Z,17.37
2018-06-11T10:09:01.436Z,23.03
2018-06-11T10:11:30.088Z,21.13
2018-06-11T10:13:58.650Z,20.50
2018-06-11T10:16:27.267Z,18.33
2018-06-11T10:18:56.023Z,18.23
2018-06-11T10:21:24.815Z,18.30
2018-06-11T10:23:53.557Z,18.67
2018-06-11T10:26:22.288Z,16.52
2018-06-11T10:28:51.061Z,21.02
2018-06-11T10:31:19.949Z,22.25
2018-06-11T10:33:48.656Z,19.80
2018-06-11T10:36:17.392Z,21.05
2018-06-11T10:38:46.041Z,21.33
2018-06-11T10:41:14.773Z,19.52
2018-06-11T10:43:43.429Z,18.57
2018-06-11T10:46:12.162Z,19.42
2018-06-11T10:48:40.903Z,21.17
2018-06-11T10:51:09.560Z,19.40
2018-06-11T10:53:38.376Z,20.32
2018-06-11T10:56:06.958Z,18.17
2018-06-11T10:58:35.619Z,18.27
2018-06-11T11:01:04.257Z,19.35
2018-06-11T11:03:32.883Z,18.70
2018-06-11T11:06:01.624Z,17.95
2018-06-11T11:08:30.274Z,18.32
2018-06-11T11:10:58.944Z,18.73
2018-06-11T11:13:27.753Z,18.82
2018-06-11T11:15:56.360Z,19.12
2018-06-11T11:18:24.892Z,17.55
2018-06-11T11:20:53.523Z,18.57
2018-06-11T11:23:22.391Z,17.07
2018-06-11T11:25:51.107Z,16.50
2018-06-11T11:28:19.832Z,16.85
2018-06-11T11:30:48.480Z,19.35
2018-06-11T11:33:17.258Z,18.23
2018-06-11T11:35:45.939Z,17.70
2018-06-11T11:38:15.524Z,18.05
2018-06-11T11:40:44.288Z,18.87
2018-06-11T11:43:13.135Z,18.77
2018-06-11T11:45:41.722Z,17.93
2018-06-11T11:48:10.659Z,18.37
2018-06-11T11:50:40.054Z,18.73
2018-06-11T11:53:09.048Z,17.50
2018-06-11T11:55:38.099Z,18.73
2018-06-11T11:58:07.090Z,19.97
2018-06-11T12:00:36.195Z,20.60
2018-06-11T12:03:05.368Z,20.47
2018-06-11T12:05:36.454Z,19.20
2018-06-11T12:08:05.295Z,21.63
2018-06-11T12:10:34.367Z,21.90
2018-06-11T12:13:03.552Z,19.93
2018-06-11T12:15:34.071Z,20.23
2018-06-11T12:18:03.766Z,22.17
2018-06-11T12:20:34.071Z,21.27
2018-06-11T12:23:02.679Z,23.17
2018-06-11T12:25:31.618Z,25.83
2018-06-11T12:28:00.380Z,23.93
2018-06-11T12:30:29.031Z,22.70
2018-06-11T12:32:57.668Z,20.10
2018-06-11T12:35:26.297Z,21.23
2018-06-11T12:37:54.846Z,21.27
2018-06-11T12:40:23.281Z,21.43
2018-06-11T12:42:52.178Z,22.27
2018-06-11T12:45:21.053Z,20.40
2018-06-11T12:47:49.893Z,19.07
2018-06-11T12:50:18.350Z,17.83
2018-06-11T12:52:47.040Z,18.07
2018-06-11T12:55:16.177Z,16.90
2018-06-11T12:57:45.241Z,16.10
2018-06-11T13:00:14.064Z,14.53
2018-06-11T13:02:42.878Z,15.97
2018-06-11T13:05:13.377Z,17.37
2018-06-11T13:07:42.297Z,16.73
2018-06-11T13:10:11.076Z,14.40
2018-06-11T13:12:40.174Z,15.60
2018-06-11T13:15:09.269Z,14.90
2018-06-11T13:17:38.403Z,13.67
2018-06-11T13:20:07.385Z,13.67
2018-06-11T13:22:36.563Z,14.13
2018-06-11T13:25:06.159Z,10.93
2018-06-11T13:27:35.079Z,10.73
2018-06-11T13:30:04.005Z,10.70
2018-06-11T13:32:35.101Z,10.87
2018-06-11T13:35:04.217Z,12.27
2018-06-11T13:37:32.871Z,12.30
2018-06-11T13:40:01.908Z,12.13
2018-06-11T13:42:30.699Z,10.77
2018-06-11T13:44:59.402Z,11.67
2018-06-11T13:47:28.006Z,11.30
2018-06-11T13:49:56.784Z,9.70
2018-06-11T13:52:26.589Z,9.30
2018-06-11T13:54:55.253Z,9.50
2018-06-11T13:57:24.177Z,9.20
2018-06-11T13:59:52.827Z,10.80
2018-06-11T14:02:21.632Z,10.60
2018-06-11T14:04:50.655Z,9.53
2018-06-11T14:07:19.412Z,9.60
2018-06-11T14:09:48.401Z,10.37
2018-06-11T14:12:17.935Z,10.50
2018-06-11T14:14:46.682Z,10.07
2018-06-11T14:17:15.334Z,9.23
2018-06-11T14:19:43.976Z,9.07
2018-06-11T14:22:12.646Z,8.77
2018-06-11T14:24:41.479Z,8.87
2018-06-11T14:27:10.233Z,8.17
2018-06-11T14:29:39.286Z,8.23
2018-06-11T14:32:08.655Z,8.47
2018-06-11T14:34:37.635Z,8.40
2018-06-11T14:37:06.646Z,8.33
2018-06-11T14:39:35.712Z,7.40
2018-06-11T14:42:04.845Z,7.27
2018-06-11T14:44:34.712Z,7.80
2018-06-11T14:47:03.940Z,7.67
2018-06-11T14:49:32.858Z,8.10
2018-06-11T14:52:01.701Z,7.50
2018-06-11T14:54:30.602Z,7.73
2018-06-11T14:57:00.736Z,8.93
2018-06-11T14:59:29.946Z,7.27
2018-06-11T15:01:58.900Z,7.80
2018-06-11T15:04:27.632Z,7.17
2018-06-11T15:06:56.500Z,6.80
2018-06-11T15:09:25.540Z,7.43
2018-06-11T15:11:54.200Z,6.40
2018-06-11T15:14:22.935Z,6.13
2018-06-11T15:16:51.915Z,6.47
2018-06-11T15:19:20.731Z,6.87
2018-06-11T15:21:49.370Z,6.53
2018-06-11T15:24:18.147Z,6.33
2018-06-11T15:26:46.753Z,6.43
2018-06-11T15:29:15.504Z,5.20
2018-06-11T15:31:44.119Z,4.97
2018-06-11T15:34:12.809Z,5.10
2018-06-11T15:36:41.548Z,5.13
2018-06-11T15:39:10.252Z,4.47
2018-06-11T15:41:38.889Z,5.23
2018-06-11T15:44:07.830Z,4.93
2018-06-11T15:46:36.605Z,5.97
2018-06-11T15:49:05.285Z,4.83
2018-06-11T15:51:34.061Z,5.97
2018-06-11T15:54:02.731Z,5.10
2018-06-11T15:56:31.531Z,5.07
2018-06-11T15:59:00.437Z,5.27
2018-06-11T16:01:29.203Z,5.33
2018-06-11T16:03:58.056Z,5.20
2018-06-11T16:06:26.616Z,5.87
2018-06-11T16:08:56.462Z,5.73
2018-06-11T16:11:25.304Z,6.93
2018-06-11T16:13:53.877Z,7.63
2018-06-11T16:16:22.794Z,5.50
2018-06-11T16:18:51.458Z,5.87
2018-06-11T16:21:20.230Z,6.37
2018-06-11T16:23:48.836Z,7.60
2018-06-11T16:26:18.310Z,6.20
2018-06-11T16:28:47.008Z,6.60
2018-06-11T16:31:15.835Z,6.07
2018-06-11T16:33:44.706Z,7.60
2018-06-11T16:36:13.357Z,5.17
2018-06-11T16:38:41.985Z,11.23
2018-06-11T16:41:10.671Z,8.03
2018-06-11T16:43:39.540Z,6.50
2018-06-11T16:46:08.321Z,6.03
2018-06-11T16:48:37.136Z,11.77
2018-06-11T16:51:05.922Z,5.33
2018-06-11T16:53:34.678Z,8.70
2018-06-11T16:56:03.329Z,5.43
2018-06-11T16:58:31.976Z,6.77
2018-06-11T17:01:00.579Z,13.07
2018-06-11T17:03:29.247Z,6.27
2018-06-11T17:05:57.813Z,6.30
2018-06-11T17:08:26.399Z,8.67
2018-06-11T17:10:55.097Z,6.10
2018-06-11T17:13:24.044Z,12.37
2018-06-11T17:15:52.761Z,6.50
2018-06-11T17:18:21.520Z,6.53
2018-06-11T17:20:50.170Z,6.33
2018-06-11T17:23:18.931Z,6.30
2018-06-11T17:25:47.721Z,5.67
2018-06-11T17:28:16.730Z,6.53
2018-06-11T17:30:45.244Z,5.70
2018-06-11T17:33:13.732Z,7.27
2018-06-11T17:35:42.643Z,6.13
2018-06-11T17:38:11.307Z,5.67
2018-06-11T17:40:40.034Z,5.27
2018-06-11T17:43:08.762Z,5.60
2018-06-11T17:45:37.322Z,8.27
2018-06-11T17:48:06.047Z,5.43
2018-06-11T17:50:34.752Z,8.07
2018-06-11T17:53:03.351Z,16.10
2018-06-11T17:55:31.933Z,85.23
2018-06-11T17:58:00.428Z,6.70
2018-06-11T18:00:29.008Z,70.43
2018-06-11T18:02:57.497Z,18.90
2018-06-11T18:05:26.138Z,10.33
2018-06-11T18:07:54.643Z,6.77
2018-06-11T18:10:23.239Z,6.97
2018-06-11T18:12:51.774Z,8.10
2018-06-11T18:15:20.447Z,9.33
2018-06-11T18:17:50.667Z,7.47
2018-06-11T18:20:19.211Z,7.03
2018-06-11T18:22:47.743Z,7.33
2018-06-11T18:25:16.387Z,8.07
2018-06-11T18:27:44.934Z,7.50
2018-06-11T18:30:13.532Z,6.17
2018-06-11T18:32:42.275Z,6.10
2018-06-11T18:35:10.943Z,6.10
2018-06-11T18:37:39.512Z,7.27
2018-06-11T18:40:08.243Z,8.37
2018-06-11T18:42:36.880Z,6.47
2018-06-11T18:45:05.552Z,6.40
2018-06-11T18:47:34.118Z,8.00
2018-06-11T18:50:02.721Z,6.80
2018-06-11T18:52:31.410Z,6.13
2018-06-11T18:55:00.130Z,8.33
2018-06-11T18:57:28.878Z,6.40
2018-06-11T18:59:57.470Z,7.23
2018-06-11T19:02:26.149Z,5.80
2018-06-11T19:04:54.818Z,7.17
2018-06-11T19:07:23.346Z,6.90
2018-06-11T19:09:52.028Z,6.33
2018-06-11T19:12:20.797Z,6.00
2018-06-11T19:14:49.432Z,8.00
2018-06-11T19:17:18.020Z,8.80
2018-06-11T19:19:46.718Z,6.70
2018-06-11T19:22:15.329Z,5.93
2018-06-11T19:24:44.096Z,6.37
2018-06-11T19:27:13.968Z,6.00
2018-06-11T19:29:42.603Z,7.17
2018-06-11T19:32:11.321Z,8.17
2018-06-11T19:34:39.983Z,6.03
2018-06-11T19:37:12.769Z,7.23
2018-06-11T19:39:46.161Z,6.17
2018-06-11T19:42:15.171Z,6.30
2018-06-11T19:44:43.872Z,10.00
2018-06-11T19:47:12.490Z,6.83
2018-06-11T19:49:41.588Z,5.97
2018-06-11T19:52:13.920Z,7.20
2018-06-11T19:54:44.910Z,9.13
2018-06-11T19:57:13.727Z,7.10
2018-06-11T19:59:42.669Z,7.17
2018-06-11T20:02:13.353Z,8.47
2018-06-11T20:04:42.181Z,8.30
2018-06-11T20:07:10.970Z,7.03
2018-06-11T20:09:39.636Z,6.83
2018-06-11T20:12:08.375Z,6.30
2018-06-11T20:14:38.091Z,10.57
2018-06-11T20:17:06.915Z,9.83
2018-06-11T20:19:35.639Z,7.87
2018-06-11T20:22:04.352Z,6.83
2018-06-11T20:24:33.144Z,6.77
2018-06-11T20:27:02.253Z,7.30
2018-06-11T20:29:31.098Z,7.40
2018-06-11T20:32:00.093Z,7.73
2018-06-11T20:34:28.912Z,8.60
2018-06-11T20:36:57.811Z,8.30
2018-06-11T20:39:26.543Z,11.13
2018-06-11T20:41:55.249Z,7.60
2018-06-11T20:44:23.934Z,8.40
2018-06-11T20:46:52.684Z,8.43
2018-06-11T20:49:21.540Z,8.27
2018-06-11T20:51:50.215Z,7.47
2018-06-11T20:54:18.853Z,8.30
2018-06-11T20:56:47.621Z,13.23
2018-06-11T20:59:16.251Z,7.63
2018-06-11T21:01:44.984Z,8.57
2018-06-11T21:04:13.868Z,8.13
2018-06-11T21:06:42.592Z,8.17
2018-06-11T21:09:11.254Z,8.47
2018-06-11T21:11:40.054Z,8.20
2018-06-11T21:14:08.805Z,8.33
2018-06-11T21:16:37.621Z,8.87
2018-06-11T21:19:06.273Z,8.77
2018-06-11T21:21:34.987Z,7.80
2018-06-11T21:24:03.804Z,8.27
2018-06-11T21:26:32.495Z,9.13
2018-06-11T21:29:01.188Z,8.63
2018-06-11T21:31:29.799Z,7.60
2018-06-11T21:33:58.522Z,7.43
2018-06-11T21:36:27.197Z,7.90
2018-06-11T21:38:55.909Z,7.47
2018-06-11T21:41:25.048Z,10.50
2018-06-11T21:43:53.769Z,7.30
2018-06-11T21:46:22.501Z,7.27
2018-06-11T21:48:51.424Z,11.53
2018-06-11T21:51:20.064Z,8.20
2018-06-11T21:53:48.723Z,8.73
2018-06-11T21:56:17.294Z,6.97
2018-06-11T21:58:45.878Z,7.13
2018-06-11T22:01:14.464Z,6.37
2018-06-11T22:03:43.101Z,7.33
2018-06-11T22:06:11.596Z,7.57
2018-06-11T22:08:40.316Z,6.77
2018-06-11T22:11:08.955Z,6.60
2018-06-11T22:13:37.677Z,7.03
2018-06-11T22:16:06.305Z,7.13
2018-06-11T22:18:35.010Z,6.63
2018-06-11T22:21:03.659Z,6.73
2018-06-11T22:23:32.344Z,6.90
2018-06-11T22:26:00.992Z,6.73
2018-06-11T22:28:29.702Z,6.37
2018-06-11T22:30:58.335Z,7.50
2018-06-11T22:33:27.190Z,6.27
2018-06-11T22:35:55.896Z,8.43
2018-06-11T22:38:24.578Z,6.90
2018-06-11T22:40:53.341Z,7.93
2018-06-11T22:43:22.128Z,7.67
2018-06-11T22:45:50.733Z,7.07
2018-06-11T22:48:19.311Z,7.80
2018-06-11T22:50:47.890Z,10.80
2018-06-11T22:53:16.524Z,7.97
2018-06-11T22:55:45.224Z,8.27
2018-06-11T22:58:13.850Z,11.20
2018-06-11T23:00:42.478Z,8.63
2018-06-11T23:03:11.103Z,8.00
2018-06-11T23:05:39.758Z,8.87
2018-06-11T23:08:08.416Z,8.27
2018-06-11T23:10:37.065Z,8.50
2018-06-11T23:13:05.821Z,8.33
2018-06-11T23:15:34.587Z,8.77
2018-06-11T23:18:03.226Z,8.83
2018-06-11T23:20:31.867Z,11.20
2018-06-11T23:23:00.527Z,8.33
2018-06-11T23:25:29.291Z,8.73
2018-06-11T23:27:57.946Z,9.20
2018-06-11T23:30:26.627Z,9.03
2018-06-11T23:32:55.208Z,9.73
2018-06-11T23:35:23.864Z,9.70
2018-06-11T23:37:52.525Z,9.50
2018-06-11T23:40:21.182Z,8.33
2018-06-11T23:42:49.824Z,9.67
2018-06-11T23:45:18.431Z,9.17
2018-06-11T23:47:47.159Z,9.80
2018-06-11T23:50:15.896Z,9.37
2018-06-11T23:52:44.651Z,10.63
2018-06-11T23:55:13.363Z,12.57
2018-06-11T23:57:42.247Z,10.93
